createdAt,value
2023-04-27T07:10:54.056Z,57.23
2023-04-27T07:15:04.425Z,57.70
2023-04-27T07:19:07.458Z,57.30
2023-04-27T07:23:10.800Z,58.50
2023-04-27T07:27:15.199Z,56.17
2023-04-27T07:31:21.488Z,58.03
2023-04-27T07:35:24.667Z,60.00
2023-04-27T21:38:48.981Z,60.90
2023-04-27T21:42:53.424Z,57.60
2023-04-27T21:46:56.422Z,54.80
2023-04-27T21:51:01.493Z,55.35
2023-04-27T21:55:06.571Z,54.90
2023-04-27T21:59:09.664Z,54.90
2023-04-27T22:03:12.968Z,54.90
2023-04-27T22:07:16.092Z,54.85
2023-04-27T22:11:21.246Z,54.80
2023-04-27T22:15:24.426Z,54.90
2023-04-27T22:19:27.675Z,54.50
2023-04-27T22:23:31.983Z,54.50
2023-04-27T22:27:44.458Z,54.70
2023-04-27T22:31:48.553Z,54.70
2023-04-27T22:35:51.563Z,53.75
2023-04-27T22:39:54.552Z,53.75
2023-04-27T22:43:58.897Z,54.55
2023-04-27T22:48:03.922Z,54.60
2023-04-27T22:52:08.012Z,54.35
2023-04-27T22:56:11.111Z,54.30
2023-04-27T23:00:16.226Z,53.60
2023-04-27T23:04:20.537Z,54.67
2023-04-27T23:08:25.011Z,54.30
2023-04-27T23:12:28.207Z,54.70
2023-04-27T23:16:32.590Z,54.35
2023-04-27T23:20:35.564Z,53.50
2023-04-27T23:24:38.522Z,54.60
2023-04-27T23:28:41.928Z,53.80
2023-04-27T23:32:46.375Z,53.40
2023-04-27T23:36:49.397Z,54.10
2023-04-27T23:40:52.618Z,53.60
2023-04-27T23:44:55.648Z,54.05
2023-04-27T23:48:59.967Z,53.60
2023-04-27T23:53:03.408Z,53.50
2023-04-27T23:57:06.638Z,52.95
